Time;durP1;ratioP1;P1;durP2;ratioP2;P2;SDS_P1;SDS_P2;PMS_P1;PMS_P2;Temp;Humidity;BMP_temperature;BMP_pressure;BME280_temperature;BME280_humidity;BME280_pressure;Samples;Min_cycle;Max_cycle;Signal;HPM_P1;HPM_P2
2023/06/25 00:01:57;;;;;;;1.15;1.15;;;24.20;99.90;;;;;;5085550;28;20040;-74
2023/06/25 00:04:23;;;;;;;1.52;1.35;;;24.20;99.90;;;;;;5081585;28;20032;-74
2023/06/25 00:06:49;;;;;;;2.90;1.15;;;24.10;99.90;;;;;;5067488;28;20114;-74
2023/06/25 00:09:14;;;;;;;1.20;1.10;;;24.20;99.90;;;;;;5079118;28;20078;-74
2023/06/25 00:11:40;;;;;;;3.42;1.10;;;24.00;99.90;;;;;;5087006;28;20394;-74
2023/06/25 00:14:06;;;;;;;1.75;1.23;;;23.90;99.90;;;;;;5083064;28;20095;-74
2023/06/25 00:16:33;;;;;;;1.10;1.00;;;23.90;99.90;;;;;;5085785;28;20021;-74
2023/06/25 00:19:00;;;;;;;3.22;1.00;;;23.90;99.90;;;;;;5081940;28;20352;-74
2023/06/25 00:21:26;;;;;;;2.53;1.10;;;23.80;99.90;;;;;;5083080;28;20050;-74
2023/06/25 00:23:52;;;;;;;2.45;0.88;;;23.80;99.90;;;;;;5089564;28;20440;-74
2023/06/25 00:26:17;;;;;;;2.67;0.90;;;23.80;99.90;;;;;;5081742;28;20050;-74
2023/06/25 00:28:44;;;;;;;1.35;1.13;;;23.80;99.90;;;;;;5082826;28;20111;-74
2023/06/25 00:31:12;;;;;;;1.92;1.23;;;23.80;99.90;;;;;;5081648;28;20115;-74
2023/06/25 00:33:38;;;;;;;1.85;1.05;;;23.70;99.90;;;;;;5062341;28;20097;-74
2023/06/25 00:36:08;;;;;;;1.20;1.10;;;23.70;99.90;;;;;;5062751;28;20032;-74
2023/06/25 00:38:39;;;;;;;1.27;1.10;;;23.60;99.90;;;;;;5066496;28;20215;-74
2023/06/25 00:41:11;;;;;;;0.88;0.88;;;23.60;99.90;;;;;;5067313;28;20032;-74
2023/06/25 00:43:41;;;;;;;1.90;0.77;;;23.50;99.90;;;;;;5079482;28;20454;-74
2023/06/25 00:46:15;;;;;;;1.10;1.10;;;23.50;99.90;;;;;;5083163;28;20032;-74
2023/06/25 00:48:45;;;;;;;0.70;0.70;;;23.40;99.90;;;;;;5063363;28;20096;-74
2023/06/25 00:51:14;;;;;;;1.15;0.73;;;23.30;99.90;;;;;;5062344;28;20077;-74
2023/06/25 00:53:41;;;;;;;2.10;0.80;;;23.30;99.90;;;;;;5083306;28;20489;-74
2023/06/25 00:56:07;;;;;;;0.80;0.80;;;23.20;99.90;;;;;;5085148;28;20486;-74
2023/06/25 00:58:38;;;;;;;1.38;0.90;;;23.20;99.90;;;;;;5080900;28;20025;-74
2023/06/25 01:01:21;;;;;;;0.60;0.60;;;23.20;99.90;;;;;;5083331;28;20044;-74
2023/06/25 01:03:54;;;;;;;1.15;0.88;;;23.30;99.90;;;;;;5078019;28;20311;-74
2023/06/25 01:06:35;;;;;;;0.82;0.82;;;23.20;99.90;;;;;;5081584;28;20521;-74
2023/06/25 01:09:02;;;;;;;0.90;0.90;;;23.20;99.90;;;;;;5084210;28;20107;-74
2023/06/25 01:11:30;;;;;;;2.10;0.85;;;23.10;99.90;;;;;;5080755;28;20024;-74
2023/06/25 01:13:56;;;;;;;0.70;0.70;;;23.10;99.90;;;;;;5072940;28;20051;-74
2023/06/25 01:16:22;;;;;;;0.88;0.88;;;23.10;99.90;;;;;;5084771;28;20048;-74
2023/06/25 01:18:50;;;;;;;1.15;0.80;;;23.00;99.90;;;;;;5084853;28;20020;-74
2023/06/25 01:21:18;;;;;;;0.75;0.75;;;22.90;99.90;;;;;;5083981;28;20073;-74
2023/06/25 01:23:44;;;;;;;0.70;0.70;;;22.90;99.90;;;;;;5083619;28;20024;-74
2023/06/25 01:26:10;;;;;;;1.25;0.70;;;22.80;99.90;;;;;;5085147;28;20073;-74
2023/06/25 01:28:35;;;;;;;0.50;0.50;;;22.80;99.90;;;;;;5078282;28;20154;-74
2023/06/25 01:31:03;;;;;;;0.90;0.90;;;22.80;99.90;;;;;;5075566;28;20028;-74
2023/06/25 01:33:29;;;;;;;2.42;1.23;;;22.80;99.90;;;;;;5084213;28;20024;-74
2023/06/25 01:35:55;;;;;;;4.13;0.70;;;22.70;99.90;;;;;;5064215;28;20474;-74
2023/06/25 01:38:21;;;;;;;1.08;0.60;;;22.70;99.90;;;;;;5086210;28;20020;-74
2023/06/25 01:40:50;;;;;;;1.13;0.60;;;22.70;99.90;;;;;;5076333;28;20051;-74
2023/06/25 01:43:16;;;;;;;0.98;0.73;;;22.60;99.90;;;;;;5083993;28;20028;-74
2023/06/25 01:45:41;;;;;;;0.57;0.57;;;22.60;99.90;;;;;;5080706;28;20367;-74
2023/06/25 01:48:08;;;;;;;0.90;0.80;;;22.70;99.90;;;;;;5081393;28;20031;-74
2023/06/25 01:50:35;;;;;;;3.47;0.68;;;22.60;99.90;;;;;;5084081;28;20533;-74
2023/06/25 01:53:00;;;;;;;1.35;0.75;;;22.50;99.90;;;;;;5084443;28;20035;-74
2023/06/25 01:55:26;;;;;;;0.70;0.70;;;22.50;99.90;;;;;;5075720;28;20397;-74
2023/06/25 01:57:52;;;;;;;0.68;0.63;;;22.50;99.90;;;;;;5086231;28;20020;-74
2023/06/25 02:00:18;;;;;;;2.85;0.90;;;22.40;99.90;;;;;;5073317;28;20048;-74
2023/06/25 02:02:43;;;;;;;0.68;0.57;;;22.30;1.00;;;;;;5089266;28;20028;-74
2023/06/25 02:05:09;;;;;;;0.70;0.63;;;22.30;1.00;;;;;;5082308;28;20482;-74
2023/06/25 02:07:35;;;;;;;0.70;0.70;;;22.30;1.00;;;;;;5082517;28;20032;-74
2023/06/25 02:10:01;;;;;;;0.52;0.52;;;22.30;1.00;;;;;;5083334;28;20024;-74
2023/06/25 02:12:26;;;;;;;2.10;0.63;;;22.20;1.00;;;;;;5081907;28;20063;-71
2023/06/25 02:14:52;;;;;;;1.02;0.70;;;22.30;1.00;;;;;;5078681;28;20038;-71
2023/06/25 02:17:18;;;;;;;0.68;0.68;;;22.20;1.00;;;;;;5080685;28;20399;-71
2023/06/25 02:19:43;;;;;;;0.70;0.70;;;22.20;1.00;;;;;;5076684;28;20025;-71
2023/06/25 02:22:09;;;;;;;0.63;0.63;;;22.20;1.00;;;;;;5080870;28;20064;-71
2023/06/25 02:24:35;;;;;;;0.57;0.57;;;22.10;1.00;;;;;;5082563;28;20026;-71
2023/06/25 02:27:00;;;;;;;1.00;0.80;;;22.00;1.00;;;;;;5080258;28;20062;-71
2023/06/25 02:29:26;;;;;;;0.80;0.80;;;22.00;1.00;;;;;;5073575;28;20021;-72
2023/06/25 02:31:52;;;;;;;0.63;0.63;;;22.00;1.00;;;;;;5081041;28;20032;-71
2023/06/25 02:34:18;;;;;;;1.33;0.60;;;22.00;1.00;;;;;;5077601;28;20113;-71
2023/06/25 02:36:43;;;;;;;0.90;0.47;;;22.00;1.00;;;;;;5079590;28;20029;-71
2023/06/25 02:39:09;;;;;;;1.45;0.77;;;21.90;1.00;;;;;;5079224;28;20027;-71
2023/06/25 02:41:35;;;;;;;2.03;0.60;;;21.90;8.30;;;;;;5080739;28;20103;-71
2023/06/25 02:44:01;;;;;;;2.25;1.00;;;21.90;6.10;;;;;;5075979;28;20374;-71
2023/06/25 02:46:26;;;;;;;2.17;0.77;;;21.90;1.00;;;;;;5086125;28;20024;-71
2023/06/25 02:48:52;;;;;;;2.83;1.08;;;21.90;1.00;;;;;;5080788;28;20375;-71
2023/06/25 02:51:18;;;;;;;1.98;0.77;;;21.90;1.00;;;;;;5087503;28;20040;-71
2023/06/25 02:53:46;;;;;;;1.20;0.55;;;21.90;18.00;;;;;;5078486;28;20020;-71
2023/06/25 02:56:12;;;;;;;0.93;0.60;;;21.80;26.70;;;;;;5083634;28;20025;-71
2023/06/25 02:58:38;;;;;;;0.80;0.80;;;21.80;44.30;;;;;;5079838;28;20034;-71
2023/06/25 03:01:03;;;;;;;0.80;0.77;;;21.80;29.50;;;;;;5085429;28;20093;-71
2023/06/25 03:03:29;;;;;;;1.52;0.80;;;21.80;46.90;;;;;;5086327;28;20020;-71
2023/06/25 03:05:55;;;;;;;2.05;0.60;;;21.90;24.50;;;;;;5085739;28;20315;-71
2023/06/25 03:08:21;;;;;;;7.85;2.25;;;21.80;28.60;;;;;;5063918;28;20044;-71
2023/06/25 03:10:47;;;;;;;4.32;0.90;;;21.90;56.00;;;;;;5083052;28;20028;-72
2023/06/25 03:13:13;;;;;;;2.33;0.80;;;21.90;47.80;;;;;;5082602;28;20028;-71
2023/06/25 03:15:39;;;;;;;1.38;0.90;;;21.90;26.10;;;;;;5084621;28;20386;-71
2023/06/25 03:18:04;;;;;;;1.35;0.70;;;21.90;62.10;;;;;;5081602;28;20051;-74
2023/06/25 03:20:30;;;;;;;0.60;0.60;;;21.90;78.00;;;;;;5086291;28;20022;-74
2023/06/25 03:22:56;;;;;;;0.75;0.75;;;21.90;47.00;;;;;;5088740;28;20028;-74
2023/06/25 03:25:21;;;;;;;0.55;0.55;;;21.90;41.40;;;;;;5084959;28;20021;-74
2023/06/25 03:27:47;;;;;;;1.55;0.90;;;21.80;42.50;;;;;;5079734;28;20107;-74
2023/06/25 03:30:13;;;;;;;2.05;0.68;;;21.80;65.00;;;;;;5083806;28;20020;-74
2023/06/25 03:32:39;;;;;;;0.80;0.80;;;21.80;91.40;;;;;;5083517;28;20032;-74
2023/06/25 03:35:04;;;;;;;0.90;0.63;;;21.80;86.80;;;;;;5089623;28;20070;-74
2023/06/25 03:37:30;;;;;;;2.28;0.80;;;21.90;98.60;;;;;;5088126;28;20039;-74
2023/06/25 03:39:56;;;;;;;0.60;0.60;;;21.90;99.90;;;;;;5082591;28;20062;-74
2023/06/25 03:42:22;;;;;;;4.32;1.45;;;21.90;99.90;;;;;;5085477;28;20538;-74
2023/06/25 03:44:53;;;;;;;1.88;0.85;;;21.80;99.90;;;;;;5078825;28;20484;-74
2023/06/25 03:47:19;;;;;;;1.20;0.75;;;21.80;99.90;;;;;;5075252;28;20032;-74
2023/06/25 03:49:45;;;;;;;0.68;0.68;;;21.80;99.90;;;;;;5081232;28;20098;-73
2023/06/25 03:52:11;;;;;;;0.57;0.57;;;21.80;99.90;;;;;;5075639;28;20108;-74
2023/06/25 03:54:36;;;;;;;0.77;0.77;;;21.80;99.90;;;;;;5085938;28;20032;-74
2023/06/25 03:57:02;;;;;;;1.30;0.68;;;21.80;99.90;;;;;;5085836;28;20032;-74
2023/06/25 03:59:28;;;;;;;2.45;0.80;;;21.80;99.90;;;;;;5083085;28;20052;-74
2023/06/25 04:01:54;;;;;;;2.67;0.85;;;21.80;99.90;;;;;;5083128;28;20082;-74
2023/06/25 04:04:20;;;;;;;1.05;0.95;;;21.80;99.90;;;;;;5060308;28;20029;-74
2023/06/25 04:06:46;;;;;;;2.22;0.80;;;21.70;99.90;;;;;;5063230;28;20047;-74
2023/06/25 04:09:11;;;;;;;0.90;0.63;;;21.80;99.90;;;;;;5082414;28;20024;-74
2023/06/25 04:11:37;;;;;;;5.15;0.93;;;21.70;99.90;;;;;;5059558;28;20368;-74
2023/06/25 04:14:03;;;;;;;1.00;0.85;;;21.70;99.90;;;;;;5082385;28;20035;-74
2023/06/25 04:16:29;;;;;;;2.17;0.70;;;21.70;99.90;;;;;;5084956;28;20093;-74
2023/06/25 04:18:54;;;;;;;0.88;0.88;;;21.80;99.90;;;;;;5084251;28;20035;-74
2023/06/25 04:21:20;;;;;;;0.80;0.80;;;21.70;99.90;;;;;;5076196;28;20036;-71
2023/06/25 04:23:46;;;;;;;1.05;0.80;;;21.70;99.90;;;;;;5063194;28;20482;-71
2023/06/25 04:26:12;;;;;;;0.80;0.70;;;21.70;99.90;;;;;;5087248;28;20064;-71
2023/06/25 04:28:38;;;;;;;1.67;0.90;;;21.60;99.90;;;;;;5068193;28;20551;-71
2023/06/25 04:31:04;;;;;;;0.80;0.80;;;21.60;99.90;;;;;;5074540;28;20020;-71
2023/06/25 04:33:29;;;;;;;0.63;0.63;;;21.60;99.90;;;;;;5089477;28;20077;-71
2023/06/25 04:35:55;;;;;;;3.33;0.82;;;21.80;99.90;;;;;;5092650;28;20171;-71
2023/06/25 04:38:23;;;;;;;1.33;0.68;;;21.70;99.90;;;;;;5090251;28;20020;-71
2023/06/25 04:40:49;;;;;;;0.60;0.60;;;21.80;99.90;;;;;;5088036;28;20025;-71
2023/06/25 04:43:15;;;;;;;0.65;0.65;;;21.90;99.90;;;;;;5081114;28;20569;-71
2023/06/25 04:45:41;;;;;;;1.17;0.80;;;21.90;99.90;;;;;;5082480;28;20039;-71
2023/06/25 04:48:07;;;;;;;0.85;0.85;;;21.90;99.90;;;;;;5075919;28;20024;-71
2023/06/25 04:50:33;;;;;;;0.98;0.63;;;21.90;99.90;;;;;;5078958;28;20035;-71
2023/06/25 04:52:59;;;;;;;1.23;0.80;;;22.00;99.90;;;;;;5082959;28;20498;-71
2023/06/25 04:55:24;;;;;;;1.13;1.02;;;22.00;99.90;;;;;;5076368;28;20028;-71
2023/06/25 04:57:51;;;;;;;0.70;0.70;;;22.00;99.90;;;;;;5079000;28;20050;-71
2023/06/25 05:00:17;;;;;;;0.80;0.60;;;22.00;99.90;;;;;;5075835;28;20028;-71
2023/06/25 05:02:42;;;;;;;4.15;0.80;;;22.10;99.90;;;;;;5060539;28;20384;-71
2023/06/25 05:05:08;;;;;;;0.77;0.60;;;22.10;99.90;;;;;;5077172;28;20024;-71
2023/06/25 05:07:37;;;;;;;1.98;0.70;;;22.10;99.90;;;;;;5080281;28;20028;-71
2023/06/25 05:10:03;;;;;;;1.30;0.82;;;22.20;99.90;;;;;;5083755;28;20036;-71
2023/06/25 05:12:29;;;;;;;1.63;0.85;;;22.20;99.90;;;;;;5081264;28;20028;-71
2023/06/25 05:14:54;;;;;;;0.90;0.60;;;22.20;99.90;;;;;;5077145;28;20024;-71
2023/06/25 05:17:20;;;;;;;1.35;0.93;;;22.30;99.90;;;;;;5080923;28;20093;-71
2023/06/25 05:19:46;;;;;;;2.20;0.98;;;22.30;99.90;;;;;;5077000;28;20030;-71
2023/06/25 05:22:11;;;;;;;1.27;0.85;;;22.30;99.90;;;;;;5082243;28;20047;-71
2023/06/25 05:24:37;;;;;;;0.82;0.77;;;22.40;99.90;;;;;;5079726;28;20028;-72
2023/06/25 05:27:03;;;;;;;0.73;0.73;;;22.30;99.90;;;;;;5081976;28;20050;-72
2023/06/25 05:29:29;;;;;;;2.15;1.00;;;22.40;99.90;;;;;;5078384;28;20509;-71
2023/06/25 05:31:55;;;;;;;3.95;0.70;;;22.50;99.90;;;;;;5061368;28;20016;-71
2023/06/25 05:34:21;;;;;;;0.70;0.70;;;22.50;99.90;;;;;;5078789;28;20024;-71
2023/06/25 05:36:47;;;;;;;4.43;0.88;;;22.60;99.90;;;;;;5081945;28;20031;-71
2023/06/25 05:39:13;;;;;;;2.30;0.70;;;22.60;99.90;;;;;;5078047;28;20020;-71
2023/06/25 05:41:39;;;;;;;0.63;0.63;;;22.80;99.90;;;;;;5080724;28;20032;-71
2023/06/25 05:44:06;;;;;;;1.75;0.82;;;22.80;99.90;;;;;;5079510;28;20025;-71
2023/06/25 05:46:31;;;;;;;0.80;0.80;;;22.90;99.90;;;;;;5079757;28;20036;-71
2023/06/25 05:48:57;;;;;;;1.00;1.00;;;23.00;99.90;;;;;;5079377;28;20500;-71
2023/06/25 05:51:23;;;;;;;0.80;0.80;;;23.10;98.70;;;;;;5079393;28;20028;-71
2023/06/25 05:53:50;;;;;;;3.30;1.00;;;23.10;34.30;;;;;;5075178;28;20413;-71
2023/06/25 05:56:16;;;;;;;1.27;0.80;;;23.20;21.50;;;;;;5083425;28;20016;-71
2023/06/25 05:58:42;;;;;;;1.30;0.88;;;23.30;47.70;;;;;;5078737;28;20553;-71
2023/06/25 06:01:08;;;;;;;2.40;0.90;;;23.30;11.50;;;;;;5082039;28;20080;-71
2023/06/25 06:03:34;;;;;;;0.75;0.75;;;23.40;1.00;;;;;;5060771;28;20024;-71
2023/06/25 06:06:00;;;;;;;0.60;0.60;;;23.50;6.70;;;;;;5077045;28;20363;-71
2023/06/25 06:08:26;;;;;;;1.02;0.90;;;23.60;6.80;;;;;;5078929;28;20266;-71
2023/06/25 06:10:52;;;;;;;1.85;0.88;;;23.70;8.40;;;;;;5078994;28;20029;-71
2023/06/25 06:13:18;;;;;;;0.82;0.82;;;23.70;1.00;;;;;;5077306;28;20040;-71
2023/06/25 06:15:44;;;;;;;4.93;0.85;;;23.80;12.60;;;;;;5077939;28;20059;-71
2023/06/25 06:18:10;;;;;;;1.00;1.00;;;23.80;1.00;;;;;;5082237;28;20509;-71
2023/06/25 06:20:35;;;;;;;0.90;0.90;;;23.80;1.00;;;;;;5069379;28;20021;-71
2023/06/25 06:23:04;;;;;;;0.75;0.73;;;23.80;1.00;;;;;;5083189;28;20055;-71
2023/06/25 06:25:29;;;;;;;4.80;0.75;;;23.90;99.90;;;;;;5081610;28;20514;-71
2023/06/25 06:27:55;;;;;;;1.00;0.90;;;24.00;99.90;;;;;;5081195;28;20179;-71
2023/06/25 06:30:21;;;;;;;2.25;1.10;;;24.10;99.90;;;;;;5083491;28;20028;-71
2023/06/25 06:32:47;;;;;;;4.72;1.00;;;24.20;99.90;;;;;;5066016;28;20058;-71
2023/06/25 06:35:13;;;;;;;1.70;0.70;;;24.30;42.10;;;;;;5079698;28;20020;-71
2023/06/25 06:37:42;;;;;;;5.28;1.02;;;24.30;56.30;;;;;;5086530;28;20024;-71
2023/06/25 06:40:08;;;;;;;1.58;1.02;;;24.40;67.40;;;;;;5081513;28;20187;-71
2023/06/25 06:42:34;;;;;;;1.10;1.10;;;24.50;52.30;;;;;;5081599;28;20035;-72
2023/06/25 06:45:00;;;;;;;3.10;1.02;;;24.60;14.20;;;;;;5061345;28;20406;-72
2023/06/25 06:47:26;;;;;;;3.92;1.02;;;24.60;1.00;;;;;;5065402;28;20488;-71
2023/06/25 06:49:51;;;;;;;3.03;1.20;;;24.60;4.30;;;;;;5079250;28;20087;-71
2023/06/25 06:52:23;;;;;;;1.20;0.88;;;24.70;1.00;;;;;;5084474;28;20032;-71
2023/06/25 06:54:49;;;;;;;;;;;24.70;1.00;;;;;;5083042;28;20025;-72
2023/06/25 06:57:14;;;;;;;0.90;0.90;;;24.80;1.00;;;;;;5081568;28;19908;-71
2023/06/25 06:59:40;;;;;;;2.67;0.90;;;24.80;1.00;;;;;;5079996;28;20021;-71
2023/06/25 07:02:06;;;;;;;1.55;1.02;;;24.80;1.00;;;;;;5084695;28;20044;-71
2023/06/25 07:04:31;;;;;;;1.05;1.00;;;24.80;1.00;;;;;;5079486;28;20477;-71
2023/06/25 07:06:57;;;;;;;1.20;0.80;;;24.90;1.00;;;;;;5081848;28;20029;-71
2023/06/25 07:09:25;;;;;;;1.77;0.73;;;25.00;1.00;;;;;;5078778;28;20382;-71
2023/06/25 07:11:51;;;;;;;1.20;1.00;;;25.10;1.00;;;;;;5084192;28;20035;-71
2023/06/25 07:14:17;;;;;;;0.70;0.70;;;25.10;1.00;;;;;;5082699;28;20470;-71
2023/06/25 07:16:43;;;;;;;2.25;0.85;;;25.10;1.00;;;;;;5069881;28;20036;-71
2023/06/25 07:19:08;;;;;;;1.00;0.95;;;25.10;1.00;;;;;;5079102;28;20017;-71
2023/06/25 07:21:34;;;;;;;0.82;0.82;;;25.10;1.00;;;;;;5084984;28;20028;-71
2023/06/25 07:24:00;;;;;;;1.33;1.08;;;25.20;1.00;;;;;;5081155;28;20031;-71
2023/06/25 07:26:27;;;;;;;0.75;0.75;;;25.20;1.00;;;;;;5082424;28;20032;-71
2023/06/25 07:28:52;;;;;;;1.25;1.15;;;25.30;1.00;;;;;;5065657;28;20075;-71
2023/06/25 07:31:18;;;;;;;2.10;1.10;;;25.30;1.00;;;;;;5082070;28;20101;-71
2023/06/25 07:33:44;;;;;;;1.98;1.23;;;25.30;1.00;;;;;;5082167;28;20519;-71
2023/06/25 07:36:10;;;;;;;1.23;1.13;;;25.40;1.00;;;;;;5078469;28;20119;-71
2023/06/25 07:38:36;;;;;;;2.28;1.20;;;25.40;1.00;;;;;;5077712;28;20482;-71
2023/06/25 07:41:01;;;;;;;1.30;1.20;;;25.40;99.90;;;;;;5083309;28;20032;-71
2023/06/25 07:43:27;;;;;;;1.50;1.40;;;25.50;1.00;;;;;;5081566;28;20028;-71
2023/06/25 07:45:53;;;;;;;1.38;1.27;;;25.50;64.20;;;;;;5068398;28;20031;-71
2023/06/25 07:48:19;;;;;;;1.40;1.30;;;25.50;85.40;;;;;;5080757;28;20036;-71
2023/06/25 07:50:44;;;;;;;3.13;1.63;;;25.50;90.00;;;;;;5080448;28;20029;-71
2023/06/25 07:53:10;;;;;;;1.60;1.33;;;25.70;89.30;;;;;;5079424;28;20021;-71
2023/06/25 07:55:41;;;;;;;2.15;1.02;;;25.80;89.20;;;;;;5067828;28;20391;-71
2023/06/25 07:58:07;;;;;;;3.90;1.70;;;25.80;90.40;;;;;;5080059;28;20071;-71
2023/06/25 08:00:34;;;;;;;1.27;1.20;;;25.90;91.20;;;;;;5078560;28;20498;-71
2023/06/25 08:03:00;;;;;;;1.48;1.38;;;26.00;91.10;;;;;;5065720;28;20056;-71
2023/06/25 08:05:26;;;;;;;3.05;1.50;;;26.10;91.00;;;;;;5060906;28;20309;-71
2023/06/25 08:07:52;;;;;;;1.58;1.48;;;26.20;90.70;;;;;;5076955;28;20408;-71
2023/06/25 08:10:17;;;;;;;1.67;1.58;;;26.20;90.90;;;;;;5083688;28;20023;-70
2023/06/25 08:12:46;;;;;;;1.90;1.80;;;26.20;91.80;;;;;;5081997;28;20033;-71
2023/06/25 08:15:15;;;;;;;1.33;1.23;;;26.20;92.00;;;;;;5080043;28;20478;-71
2023/06/25 08:17:41;;;;;;;1.40;1.30;;;26.20;92.10;;;;;;5083426;28;20036;-71
2023/06/25 08:20:07;;;;;;;2.55;1.50;;;26.30;91.60;;;;;;5078038;28;20016;-71
2023/06/25 08:22:33;;;;;;;1.48;1.38;;;26.20;90.60;;;;;;5082449;28;20032;-72
2023/06/25 08:24:59;;;;;;;2.72;1.63;;;26.30;91.50;;;;;;5079597;28;20290;-71
2023/06/25 08:27:25;;;;;;;1.38;1.27;;;26.20;92.40;;;;;;5081094;28;20029;-71
2023/06/25 08:29:50;;;;;;;1.80;1.40;;;26.30;92.70;;;;;;5077959;28;20526;-71
2023/06/25 08:32:16;;;;;;;1.40;1.30;;;26.30;93.40;;;;;;5080891;28;20113;-71
2023/06/25 08:34:42;;;;;;;1.20;1.20;;;26.30;93.50;;;;;;5076208;28;20467;-71
2023/06/25 08:37:07;;;;;;;2.88;1.38;;;26.40;94.00;;;;;;5081278;28;20501;-71
2023/06/25 08:39:33;;;;;;;2.58;1.35;;;26.50;92.40;;;;;;5076557;28;20123;-70
2023/06/25 08:41:59;;;;;;;2.40;1.35;;;26.40;92.40;;;;;;5081926;28;20067;-71
2023/06/25 08:44:25;;;;;;;1.33;1.20;;;26.60;92.70;;;;;;5079455;28;20482;-71
2023/06/25 08:46:54;;;;;;;1.10;1.00;;;26.60;92.90;;;;;;5082407;28;20038;-71
2023/06/25 08:49:22;;;;;;;1.08;1.00;;;26.60;93.00;;;;;;5076799;28;20478;-71
2023/06/25 08:51:52;;;;;;;1.20;1.10;;;26.60;92.90;;;;;;5080284;28;20025;-72
2023/06/25 08:54:18;;;;;;;0.85;0.85;;;26.60;92.60;;;;;;5079586;28;20028;-71
2023/06/25 08:56:43;;;;;;;1.88;1.02;;;26.60;92.50;;;;;;5080832;28;20053;-71
2023/06/25 08:59:09;;;;;;;2.03;1.20;;;26.60;92.50;;;;;;5079081;28;20490;-71
2023/06/25 09:01:38;;;;;;;1.60;1.50;;;26.50;92.60;;;;;;5080491;28;20174;-71
2023/06/25 09:04:04;;;;;;;0.93;0.93;;;26.60;92.60;;;;;;5076956;28;20061;-71
2023/06/25 09:06:37;;;;;;;1.50;1.40;;;26.70;93.20;;;;;;5080726;28;20056;-71
2023/06/25 09:09:03;;;;;;;1.40;1.30;;;26.70;91.40;;;;;;5076384;28;20040;-70
2023/06/25 09:11:32;;;;;;;3.13;1.52;;;26.80;92.20;;;;;;5080275;28;20031;-71
2023/06/25 09:13:59;;;;;;;1.50;1.40;;;26.80;91.80;;;;;;5080841;28;20028;-71
2023/06/25 09:16:26;;;;;;;1.50;1.40;;;26.90;91.60;;;;;;5080982;28;20020;-71
2023/06/25 09:18:52;;;;;;;1.33;1.10;;;27.00;90.90;;;;;;5086160;28;20032;-71
2023/06/25 09:21:17;;;;;;;1.88;1.40;;;27.00;91.10;;;;;;5080786;28;20032;-71
2023/06/25 09:23:51;;;;;;;1.00;1.00;;;27.10;91.30;;;;;;5076239;28;20020;-71
2023/06/25 09:26:17;;;;;;;1.50;1.40;;;27.10;90.50;;;;;;5084150;28;20028;-71
2023/06/25 09:28:49;;;;;;;1.55;1.45;;;26.90;90.40;;;;;;5078644;28;20031;-73
2023/06/25 09:31:18;;;;;;;3.00;1.45;;;26.90;91.80;;;;;;5084723;28;20029;-74
2023/06/25 09:33:52;;;;;;;1.38;1.27;;;27.00;92.50;;;;;;5076739;28;20719;-74
2023/06/25 09:36:18;;;;;;;2.58;1.30;;;27.00;91.20;;;;;;5073432;28;20024;-74
2023/06/25 09:38:47;;;;;;;1.45;1.38;;;27.00;92.40;;;;;;5084904;28;20505;-74
2023/06/25 09:41:15;;;;;;;4.30;1.50;;;27.10;91.40;;;;;;5083657;28;20440;-74
2023/06/25 09:43:43;;;;;;;2.03;1.27;;;27.10;90.20;;;;;;5083249;28;20031;-74
2023/06/25 09:46:10;;;;;;;4.03;1.70;;;27.10;91.00;;;;;;5093092;28;20074;-74
2023/06/25 09:48:37;;;;;;;3.88;1.52;;;27.20;90.10;;;;;;5082353;28;20486;-74
2023/06/25 09:51:06;;;;;;;1.52;1.30;;;27.30;91.10;;;;;;5055090;28;20032;-74
2023/06/25 09:53:36;;;;;;;2.53;1.50;;;27.40;89.10;;;;;;5083985;28;20016;-74
2023/06/25 09:56:04;;;;;;;1.50;1.40;;;27.50;88.80;;;;;;5088519;28;20450;-74
2023/06/25 09:58:30;;;;;;;3.25;1.50;;;27.40;87.70;;;;;;5089225;28;20116;-74
2023/06/25 10:00:56;;;;;;;1.30;1.27;;;27.60;91.30;;;;;;5093023;28;20468;-74
2023/06/25 10:03:24;;;;;;;2.25;1.55;;;27.60;86.30;;;;;;5092744;28;20052;-74
2023/06/25 10:05:51;;;;;;;1.77;1.63;;;27.60;88.50;;;;;;5092804;28;20024;-74
2023/06/25 10:08:18;;;;;;;1.20;1.10;;;27.70;91.30;;;;;;5092816;28;20385;-74
2023/06/25 10:10:58;;;;;;;2.70;1.40;;;27.70;91.30;;;;;;5092800;28;20051;-74
2023/06/25 10:13:27;;;;;;;1.77;1.67;;;27.70;91.60;;;;;;5092983;28;20017;-75
2023/06/25 10:15:57;;;;;;;1.50;1.40;;;27.80;92.40;;;;;;5088121;28;20094;-74
2023/06/25 10:18:24;;;;;;;2.58;1.42;;;27.90;91.50;;;;;;5079337;28;20025;-74
2023/06/25 10:20:49;;;;;;;1.52;1.30;;;28.10;91.30;;;;;;5080036;28;20036;-74
2023/06/25 10:23:22;;;;;;;2.33;1.70;;;28.10;90.40;;;;;;5080795;28;20016;-74
2023/06/25 10:25:58;;;;;;;2.13;1.38;;;28.00;89.70;;;;;;5081841;28;20017;-74
2023/06/25 10:28:34;;;;;;;1.33;1.20;;;28.10;89.50;;;;;;5069377;28;20032;-74
2023/06/25 10:31:12;;;;;;;2.60;1.38;;;28.30;90.90;;;;;;5079466;28;20040;-74
2023/06/25 10:33:38;;;;;;;1.90;1.80;;;28.30;87.60;;;;;;5079738;28;20031;-74
2023/06/25 10:36:08;;;;;;;1.90;1.80;;;28.30;89.20;;;;;;5079800;28;20051;-74
2023/06/25 10:38:34;;;;;;;3.33;1.60;;;28.40;89.00;;;;;;5079862;28;20092;-74
2023/06/25 10:41:00;;;;;;;1.58;1.48;;;28.50;90.30;;;;;;5079248;28;20386;-74
2023/06/25 10:43:26;;;;;;;1.60;1.20;;;28.50;87.20;;;;;;5072062;28;20039;-74
2023/06/25 10:45:53;;;;;;;1.40;1.30;;;28.50;84.90;;;;;;5083729;28;20304;-74
2023/06/25 10:48:20;;;;;;;2.33;1.23;;;28.50;84.30;;;;;;5062433;28;20505;-74
2023/06/25 10:50:46;;;;;;;2.08;1.40;;;28.60;86.10;;;;;;5078943;28;20021;-74
2023/06/25 10:53:15;;;;;;;2.15;1.63;;;28.80;86.30;;;;;;5081899;28;20127;-74
2023/06/25 10:55:49;;;;;;;1.40;1.35;;;28.90;84.30;;;;;;5086889;28;20036;-74
2023/06/25 10:58:20;;;;;;;5.05;2.00;;;28.90;84.00;;;;;;5079183;28;20031;-74
2023/06/25 11:00:52;;;;;;;1.33;1.30;;;29.10;82.90;;;;;;5076512;28;20078;-74
2023/06/25 11:03:18;;;;;;;2.20;2.10;;;29.10;80.40;;;;;;5081410;28;20032;-74
2023/06/25 11:05:46;;;;;;;1.80;1.63;;;29.00;78.40;;;;;;5083388;28;20410;-75
2023/06/25 11:08:13;;;;;;;1.85;1.67;;;29.10;78.50;;;;;;5079739;28;20022;-74
2023/06/25 11:10:40;;;;;;;4.60;1.90;;;29.00;78.10;;;;;;5060649;28;20024;-74
2023/06/25 11:13:10;;;;;;;3.15;1.70;;;29.10;78.20;;;;;;5093429;28;20428;-74
2023/06/25 11:15:35;;;;;;;2.13;1.90;;;29.10;77.60;;;;;;5090899;28;20085;-74
2023/06/25 11:18:03;;;;;;;2.50;1.70;;;29.30;77.30;;;;;;5082670;28;20474;-74
2023/06/25 11:20:29;;;;;;;2.85;1.90;;;29.40;77.70;;;;;;5092102;28;20532;-74
2023/06/25 11:22:56;;;;;;;1.75;1.65;;;29.50;75.80;;;;;;5088817;28;20036;-74
2023/06/25 11:25:21;;;;;;;1.92;1.83;;;29.50;76.10;;;;;;5057720;28;20036;-74
2023/06/25 11:27:48;;;;;;;4.13;1.77;;;29.50;73.70;;;;;;5077026;28;20087;-74
2023/06/25 11:30:14;;;;;;;1.35;1.27;;;29.60;74.10;;;;;;5089678;28;20115;-74
2023/06/25 11:32:40;;;;;;;2.10;1.50;;;29.70;73.50;;;;;;5095586;28;20020;-74
2023/06/25 11:35:11;;;;;;;1.85;1.67;;;29.80;72.30;;;;;;5095915;28;20028;-74
2023/06/25 11:37:48;;;;;;;4.53;3.30;;;29.80;73.60;;;;;;5065407;28;20378;-74
2023/06/25 11:40:41;;;;;;;5.13;4.65;;;30.00;74.10;;;;;;5077563;28;20024;-74
2023/06/25 11:43:08;;;;;;;2.78;1.83;;;30.00;70.70;;;;;;5091618;28;20410;-74
2023/06/25 11:45:42;;;;;;;4.13;2.75;;;30.10;74.20;;;;;;5088452;28;20043;-74
2023/06/25 11:48:13;;;;;;;4.03;3.25;;;30.40;74.30;;;;;;5057894;28;20043;-74
2023/06/25 11:50:39;;;;;;;3.63;3.35;;;30.50;72.80;;;;;;5075440;28;20032;-74
2023/06/25 11:53:05;;;;;;;2.22;2.13;;;30.50;70.90;;;;;;5088276;28;20028;-74
2023/06/25 11:55:31;;;;;;;3.88;3.08;;;30.50;71.00;;;;;;5089063;28;20506;-74
2023/06/25 11:57:56;;;;;;;1.80;1.70;;;30.70;71.40;;;;;;5087140;28;20016;-74
2023/06/25 12:00:22;;;;;;;1.50;1.40;;;30.90;72.80;;;;;;5095159;28;20075;-74
2023/06/25 12:02:48;;;;;;;1.92;1.77;;;30.80;70.00;;;;;;5083935;28;20023;-74
2023/06/25 12:05:14;;;;;;;5.15;3.05;;;30.90;73.80;;;;;;5074900;28;20028;-74
2023/06/25 12:07:42;;;;;;;3.00;2.80;;;31.10;71.80;;;;;;5066918;28;20020;-74
2023/06/25 12:10:08;;;;;;;1.92;1.83;;;31.00;68.70;;;;;;5081600;28;20124;-74
2023/06/25 12:12:34;;;;;;;2.63;2.42;;;31.10;67.60;;;;;;5074704;28;20116;-74
2023/06/25 12:14:59;;;;;;;3.20;2.90;;;31.10;66.60;;;;;;5081987;28;20074;-74
2023/06/25 12:17:25;;;;;;;2.00;1.90;;;31.20;69.10;;;;;;5060612;28;20024;-74
2023/06/25 12:19:51;;;;;;;3.03;1.90;;;31.30;70.20;;;;;;5092712;28;20022;-74
2023/06/25 12:22:17;;;;;;;1.80;1.70;;;31.40;69.40;;;;;;5085771;28;20105;-74
2023/06/25 12:24:42;;;;;;;2.67;1.90;;;31.30;67.60;;;;;;5081316;28;20044;-74
2023/06/25 12:27:09;;;;;;;2.25;1.73;;;31.50;68.70;;;;;;5082861;28;20046;-74
2023/06/25 12:29:35;;;;;;;2.47;2.17;;;31.80;71.50;;;;;;5067243;28;20105;-74
2023/06/25 12:32:01;;;;;;;3.00;2.70;;;32.00;67.80;;;;;;5087415;28;20028;-75
2023/06/25 12:34:28;;;;;;;5.43;3.38;;;32.10;66.60;;;;;;5063006;28;20020;-74
2023/06/25 12:36:54;;;;;;;3.63;1.98;;;32.20;64.60;;;;;;5067370;28;20069;-74
2023/06/25 12:39:20;;;;;;;2.05;1.95;;;32.20;63.90;;;;;;5076754;28;20025;-74
2023/06/25 12:41:46;;;;;;;4.65;2.03;;;32.30;64.00;;;;;;5066651;28;20119;-74
2023/06/25 12:44:12;;;;;;;2.28;2.17;;;32.20;61.40;;;;;;5075365;28;20530;-74
2023/06/25 12:46:38;;;;;;;2.65;1.85;;;32.30;62.20;;;;;;5076658;28;20500;-74